createdAt,value
2019-01-04T00:01:48.620Z,20.80
2019-01-04T00:04:41.742Z,20.80
2019-01-04T00:07:34.771Z,20.80
2019-01-04T00:10:27.602Z,20.80
2019-01-04T00:13:20.887Z,20.80
2019-01-04T00:16:16.938Z,20.80
2019-01-04T00:19:10.357Z,20.80
2019-01-04T00:22:03.168Z,20.80
2019-01-04T00:24:56.441Z,20.80
2019-01-04T00:27:49.643Z,20.80
2019-01-04T00:30:42.974Z,20.80
2019-01-04T00:33:36.076Z,20.80
2019-01-04T00:36:29.151Z,20.80
2019-01-04T00:39:22.301Z,20.80
2019-01-04T00:42:15.503Z,20.80
2019-01-04T00:45:16.236Z,20.70
2019-01-04T00:48:11.883Z,20.70
2019-01-04T00:51:04.670Z,20.70
2019-01-04T00:54:00.264Z,20.70
2019-01-04T00:57:02.365Z,20.70
2019-01-04T01:00:12.390Z,20.70
2019-01-04T01:03:21.890Z,20.70
2019-01-04T01:06:45.385Z,20.70
2019-01-04T01:09:54.899Z,20.70
2019-01-04T01:13:15.226Z,20.70
2019-01-04T01:16:36.324Z,20.70
2019-01-04T01:19:39.661Z,20.70
2019-01-04T01:22:43.725Z,20.70
2019-01-04T01:25:53.417Z,20.70
2019-01-04T01:29:03.367Z,20.70
2019-01-04T01:32:00.126Z,20.70
2019-01-04T01:35:08.175Z,20.70
2019-01-04T01:38:23.191Z,20.70
2019-01-04T01:41:28.718Z,20.70
2019-01-04T01:44:58.345Z,20.70
2019-01-04T01:47:56.005Z,20.70
2019-01-04T01:50:54.900Z,20.70
2019-01-04T01:53:50.687Z,20.70
2019-01-04T01:56:43.673Z,20.70
2019-01-04T01:59:36.219Z,20.70
2019-01-04T02:02:28.990Z,20.70
2019-01-04T02:05:22.124Z,20.70
2019-01-04T02:08:16.088Z,20.70
2019-01-04T02:11:09.212Z,20.70
2019-01-04T02:14:07.585Z,20.70
2019-01-04T02:17:00.771Z,20.60
2019-01-04T02:19:53.939Z,20.60
2019-01-04T02:22:46.939Z,20.70
2019-01-04T02:25:41.798Z,20.60
2019-01-04T02:28:35.010Z,20.70
2019-01-04T02:31:28.239Z,20.70
2019-01-04T02:34:21.637Z,20.70
2019-01-04T02:37:14.913Z,20.60
2019-01-04T02:40:08.122Z,20.60
2019-01-04T02:43:01.031Z,20.70
2019-01-04T02:45:57.060Z,20.70
2019-01-04T02:48:49.970Z,20.60
2019-01-04T02:51:50.793Z,20.60
2019-01-04T02:54:37.654Z,20.70
2019-01-04T02:57:30.888Z,20.60
2019-01-04T03:00:23.578Z,20.60
2019-01-04T03:03:17.576Z,20.60
2019-01-04T03:06:10.920Z,20.60
2019-01-04T03:09:04.155Z,20.60
2019-01-04T03:11:57.886Z,20.70
2019-01-04T03:14:50.819Z,20.60
2019-01-04T03:17:43.807Z,20.60
2019-01-04T03:20:37.084Z,20.60
2019-01-04T03:23:29.997Z,20.60
2019-01-04T03:26:23.933Z,20.60
2019-01-04T03:29:17.491Z,20.60
2019-01-04T03:32:12.469Z,20.60
2019-01-04T03:35:05.746Z,20.60
2019-01-04T03:37:59.266Z,20.60
2019-01-04T03:40:52.318Z,20.60
2019-01-04T03:43:51.563Z,20.60
2019-01-04T03:46:44.713Z,20.60
2019-01-04T03:49:38.338Z,20.60
2019-01-04T03:52:31.488Z,20.60
2019-01-04T03:55:24.645Z,20.60
2019-01-04T03:58:18.618Z,20.60
2019-01-04T04:01:12.432Z,20.60
2019-01-04T04:04:05.498Z,20.60
2019-01-04T04:06:58.936Z,20.60
2019-01-04T04:09:58.973Z,20.60
2019-01-04T04:12:51.881Z,20.60
2019-01-04T04:15:45.591Z,20.60
2019-01-04T04:18:38.284Z,20.60
2019-01-04T04:21:31.762Z,20.60
2019-01-04T04:24:25.428Z,20.60
2019-01-04T04:27:18.598Z,20.60
2019-01-04T04:30:11.949Z,20.60
2019-01-04T04:33:05.259Z,20.60
2019-01-04T04:35:59.184Z,20.60
2019-01-04T04:38:52.325Z,20.60
2019-01-04T04:41:45.681Z,20.60
2019-01-04T04:44:40.039Z,20.60
2019-01-04T04:47:33.293Z,20.60
2019-01-04T04:50:26.697Z,20.60
2019-01-04T04:53:19.921Z,20.60
2019-01-04T04:56:13.073Z,20.60
2019-01-04T04:59:09.366Z,20.60
2019-01-04T05:02:02.772Z,20.60
2019-01-04T05:04:56.673Z,20.60
2019-01-04T05:07:49.882Z,20.60
2019-01-04T05:10:42.904Z,20.60
2019-01-04T05:13:39.022Z,20.60
2019-01-04T05:16:32.423Z,20.60
2019-01-04T05:19:26.095Z,20.60
2019-01-04T05:22:20.281Z,20.60
2019-01-04T05:25:14.034Z,20.60
2019-01-04T05:28:07.592Z,20.60
2019-01-04T05:31:02.074Z,20.60
2019-01-04T05:33:56.127Z,20.60
2019-01-04T05:36:52.047Z,20.60
2019-01-04T05:39:48.539Z,20.60
2019-01-04T05:46:28.408Z,20.60
2019-01-04T05:49:33.269Z,20.60
2019-01-04T05:52:33.765Z,20.60
2019-01-04T05:55:30.656Z,20.60
2019-01-04T05:58:27.077Z,20.60
2019-01-04T06:01:27.149Z,20.60
2019-01-04T06:04:21.352Z,20.60
2019-01-04T06:07:14.761Z,20.60
2019-01-04T06:10:08.448Z,20.60
2019-01-04T06:13:05.381Z,20.60
2019-01-04T06:16:00.027Z,20.60
2019-01-04T06:18:54.727Z,20.60
2019-01-04T06:21:51.175Z,20.60
2019-01-04T06:24:44.896Z,20.60
2019-01-04T06:27:38.458Z,20.60
2019-01-04T06:30:34.928Z,20.60
2019-01-04T06:33:28.512Z,20.60
2019-01-04T06:36:22.958Z,20.60
2019-01-04T06:39:17.544Z,20.60
2019-01-04T06:42:12.525Z,20.60
2019-01-04T06:45:07.501Z,20.60
2019-01-04T06:48:01.324Z,20.60
2019-01-04T06:50:56.585Z,20.60
2019-01-04T06:53:54.191Z,20.60
2019-01-04T06:56:47.602Z,20.70
2019-01-04T06:59:41.281Z,20.60
2019-01-04T07:02:37.609Z,20.70
2019-01-04T07:05:31.820Z,20.70
2019-01-04T07:08:26.219Z,20.60
2019-01-04T07:11:22.667Z,20.70
2019-01-04T07:14:17.479Z,20.60
2019-01-04T07:17:17.363Z,20.60
2019-01-04T07:20:12.288Z,20.70
2019-01-04T07:23:12.837Z,20.70
2019-01-04T07:26:08.584Z,20.70
2019-01-04T07:29:02.828Z,20.70
2019-01-04T07:31:58.449Z,20.70
2019-01-04T07:35:01.593Z,20.70
2019-01-04T07:38:02.490Z,20.70
2019-01-04T07:41:05.879Z,20.70
2019-01-04T07:44:02.082Z,20.70
2019-01-04T07:46:55.818Z,20.70
2019-01-04T07:49:49.869Z,20.70
2019-01-04T07:52:43.505Z,20.70
2019-01-04T07:55:37.028Z,20.70
2019-01-04T07:58:30.662Z,20.70
2019-01-04T08:01:28.012Z,20.70
2019-01-04T08:04:22.855Z,20.70
2019-01-04T08:07:19.035Z,20.70
2019-01-04T08:10:12.667Z,20.70
2019-01-04T08:13:06.037Z,20.70
2019-01-04T08:15:58.904Z,20.70
2019-01-04T08:18:56.374Z,20.80
2019-01-04T08:21:53.654Z,20.70
2019-01-04T08:24:56.822Z,20.80
2019-01-04T08:27:52.253Z,20.80
2019-01-04T08:30:46.998Z,20.80
2019-01-04T08:33:42.325Z,20.80
2019-01-04T08:36:35.554Z,20.80
2019-01-04T08:39:35.232Z,20.80
2019-01-04T08:42:29.008Z,20.80
2019-01-04T08:45:23.359Z,20.80
2019-01-04T08:48:17.584Z,20.80
2019-01-04T08:51:10.683Z,20.80
2019-01-04T08:54:05.987Z,20.80
2019-01-04T08:57:02.964Z,20.80
2019-01-04T09:00:02.700Z,20.80
2019-01-04T09:03:01.936Z,20.80
2019-01-04T09:05:57.897Z,20.80
2019-01-04T09:08:53.139Z,20.80
2019-01-04T09:11:47.346Z,20.80
2019-01-04T09:14:43.612Z,20.80
2019-01-04T09:17:45.935Z,20.90
2019-01-04T09:20:43.443Z,20.80
2019-01-04T09:23:50.342Z,20.90
2019-01-04T09:26:52.071Z,20.90
2019-01-04T09:29:55.855Z,20.90
2019-01-04T09:32:56.963Z,20.90
2019-01-04T09:35:56.774Z,20.90
2019-01-04T09:39:15.441Z,20.90
2019-01-04T09:42:17.884Z,20.90
2019-01-04T09:45:12.908Z,20.90
2019-01-04T09:48:10.038Z,20.90
2019-01-04T09:51:05.403Z,21.00
2019-01-04T09:54:08.590Z,21.00
2019-01-04T09:57:06.323Z,20.90
2019-01-04T10:00:06.555Z,21.00
2019-01-04T10:03:08.422Z,21.00
2019-01-04T10:09:13.648Z,21.00
2019-01-04T10:12:13.642Z,21.00
2019-01-04T10:15:12.057Z,21.00
2019-01-04T10:18:20.492Z,21.00
2019-01-04T10:21:23.546Z,21.00
2019-01-04T10:24:10.945Z,21.00
2019-01-04T10:27:10.712Z,21.00
2019-01-04T10:30:07.526Z,21.10
2019-01-04T10:33:15.002Z,21.00
2019-01-04T10:36:19.819Z,21.10
2019-01-04T10:39:19.447Z,21.10
2019-01-04T10:42:41.953Z,21.10
2019-01-04T10:45:36.828Z,21.10
2019-01-04T10:48:40.724Z,21.10
2019-01-04T10:51:47.401Z,21.10
2019-01-04T10:54:41.694Z,21.10
2019-01-04T10:57:38.642Z,21.10
2019-01-04T11:00:45.965Z,21.10
2019-01-04T11:03:40.163Z,21.10
2019-01-04T11:06:40.228Z,21.10
2019-01-04T11:09:34.303Z,21.10
2019-01-04T11:12:33.632Z,21.10
2019-01-04T11:15:30.156Z,21.10
2019-01-04T11:18:29.417Z,21.10
2019-01-04T11:21:26.904Z,21.10
2019-01-04T11:24:40.687Z,21.20
2019-01-04T11:27:55.905Z,21.20
2019-01-04T11:31:15.206Z,21.20
2019-01-04T11:34:20.132Z,21.20
2019-01-04T11:37:27.758Z,21.20
2019-01-04T11:40:32.865Z,21.20
2019-01-04T11:44:00.711Z,21.20
2019-01-04T11:47:20.131Z,21.20
2019-01-04T11:50:37.417Z,21.20
2019-01-04T11:53:33.010Z,21.20
2019-01-04T11:56:33.120Z,21.20
2019-01-04T11:59:31.582Z,21.20
2019-01-04T12:02:26.464Z,21.20
2019-01-04T12:05:27.038Z,21.20
2019-01-04T12:08:23.402Z,21.20
2019-01-04T12:11:17.750Z,21.20
2019-01-04T12:14:11.371Z,21.20
2019-01-04T12:17:05.955Z,21.20
2019-01-04T12:19:59.904Z,21.20
2019-01-04T12:22:54.680Z,21.30
2019-01-04T12:25:49.849Z,21.30
2019-01-04T12:28:43.556Z,21.30
2019-01-04T12:31:39.298Z,21.30
2019-01-04T12:34:34.900Z,21.30
2019-01-04T12:37:28.984Z,21.30
2019-01-04T12:40:23.295Z,21.30
2019-01-04T12:43:17.473Z,21.30
2019-01-04T12:46:11.025Z,21.30
2019-01-04T12:49:04.296Z,21.30
2019-01-04T12:51:59.084Z,21.30
2019-01-04T12:54:52.813Z,21.30
2019-01-04T12:57:45.693Z,21.30
2019-01-04T13:00:41.774Z,21.30
2019-01-04T13:03:38.660Z,21.30
2019-01-04T13:06:35.281Z,21.30
2019-01-04T13:09:30.702Z,21.30
2019-01-04T13:12:26.766Z,21.30
2019-01-04T13:15:23.589Z,21.30
2019-01-04T13:18:17.433Z,21.30
2019-01-04T13:21:11.148Z,21.40
2019-01-04T13:24:04.794Z,21.40
2019-01-04T13:27:03.469Z,21.40
2019-01-04T13:29:55.366Z,21.40
2019-01-04T13:32:48.439Z,21.40
2019-01-04T13:35:43.854Z,21.40
2019-01-04T13:38:36.959Z,21.40
2019-01-04T13:41:31.576Z,21.40
2019-01-04T13:44:24.472Z,21.40
2019-01-04T13:47:19.654Z,21.40
2019-01-04T13:50:12.661Z,21.40
2019-01-04T13:53:05.589Z,21.40
2019-01-04T13:55:58.904Z,21.40
2019-01-04T13:58:52.323Z,21.40
2019-01-04T14:01:45.832Z,21.40
2019-01-04T14:04:39.155Z,21.40
2019-01-04T14:07:32.643Z,21.40
2019-01-04T14:10:25.520Z,21.40
2019-01-04T14:13:32.958Z,21.40
2019-01-04T14:16:25.985Z,21.40
2019-01-04T14:19:19.090Z,21.40
2019-01-04T14:22:12.401Z,21.40
2019-01-04T14:25:06.012Z,21.50
2019-01-04T14:27:59.285Z,21.50
2019-01-04T14:30:52.621Z,21.50
2019-01-04T14:33:48.989Z,21.50
2019-01-04T14:36:43.177Z,21.50
2019-01-04T14:39:36.389Z,21.50
2019-01-04T14:42:29.883Z,21.50
2019-01-04T14:45:23.099Z,21.50
2019-01-04T14:48:16.452Z,21.50
2019-01-04T14:51:09.654Z,21.50
2019-01-04T14:54:05.208Z,21.50
2019-01-04T14:56:58.474Z,21.50
2019-01-04T14:59:53.824Z,21.50
2019-01-04T15:02:46.437Z,21.50
2019-01-04T15:05:39.598Z,21.50
2019-01-04T15:08:32.815Z,21.50
2019-01-04T15:11:26.162Z,21.50
2019-01-04T15:14:28.287Z,21.50
2019-01-04T15:17:27.910Z,21.50
2019-01-04T15:20:22.175Z,21.50
2019-01-04T15:23:16.108Z,21.50
2019-01-04T15:26:09.520Z,21.50
2019-01-04T15:29:04.848Z,21.50
2019-01-04T15:31:58.372Z,21.50
2019-01-04T15:34:51.688Z,21.50
2019-01-04T15:37:45.194Z,21.50
2019-01-04T15:40:38.447Z,21.50
2019-01-04T15:43:32.045Z,21.50
2019-01-04T15:46:25.589Z,21.50
2019-01-04T15:49:27.120Z,21.50
2019-01-04T15:52:13.249Z,21.50
2019-01-04T15:55:06.351Z,21.50
2019-01-04T15:57:59.176Z,21.50
2019-01-04T16:00:53.778Z,21.60
2019-01-04T16:03:47.443Z,21.50
2019-01-04T16:06:40.405Z,21.50
2019-01-04T16:09:33.535Z,21.50
2019-01-04T16:12:26.694Z,21.50
2019-01-04T16:15:20.628Z,21.50
2019-01-04T16:18:14.308Z,21.50
2019-01-04T16:21:09.938Z,21.50
2019-01-04T16:24:02.765Z,21.50
2019-01-04T16:26:55.757Z,21.50
2019-01-04T16:29:49.071Z,21.50
2019-01-04T16:32:42.454Z,21.50
2019-01-04T16:35:35.678Z,21.50
2019-01-04T16:38:28.862Z,21.50
2019-01-04T16:41:22.398Z,21.50
2019-01-04T16:44:16.115Z,21.50
2019-01-04T16:47:09.375Z,21.50
2019-01-04T16:50:02.864Z,21.50
2019-01-04T16:52:59.483Z,21.50
2019-01-04T16:55:52.045Z,21.50
2019-01-04T16:58:45.373Z,21.50
2019-01-04T17:01:38.594Z,21.50
2019-01-04T17:04:32.219Z,21.60
2019-01-04T17:07:25.363Z,21.50
2019-01-04T17:10:19.696Z,21.50
2019-01-04T17:13:13.191Z,21.50
2019-01-04T17:16:06.662Z,21.50
2019-01-04T17:18:59.814Z,21.50
2019-01-04T17:21:54.295Z,21.50
2019-01-04T17:24:47.276Z,21.50
2019-01-04T17:27:48.687Z,21.50
2019-01-04T17:30:35.865Z,21.50
2019-01-04T17:33:29.496Z,21.50
2019-01-04T17:36:22.749Z,21.50
2019-01-04T17:39:16.290Z,21.50
2019-01-04T17:42:09.498Z,21.50
2019-01-04T17:45:02.471Z,21.50
2019-01-04T17:47:55.490Z,21.50
2019-01-04T17:50:48.527Z,21.50
2019-01-04T17:53:41.564Z,21.50
2019-01-04T17:56:34.304Z,21.50
2019-01-04T17:59:28.474Z,21.50
2019-01-04T18:02:21.563Z,21.50
2019-01-04T18:05:14.917Z,21.50
2019-01-04T18:08:08.155Z,21.50
2019-01-04T18:11:01.365Z,21.50
2019-01-04T18:13:54.601Z,21.50
2019-01-04T18:16:49.110Z,21.50
2019-01-04T18:19:42.213Z,21.50
2019-01-04T18:22:35.203Z,21.50
2019-01-04T18:25:28.438Z,21.50
2019-01-04T18:28:21.648Z,21.50
2019-01-04T18:31:14.919Z,21.50
2019-01-04T18:34:08.051Z,21.50
2019-01-04T18:37:02.375Z,21.50
2019-01-04T18:39:55.593Z,21.50
2019-01-04T18:42:48.656Z,21.50
2019-01-04T18:45:42.132Z,21.50
2019-01-04T18:48:35.459Z,21.50
2019-01-04T18:51:28.745Z,21.50
2019-01-04T18:54:21.509Z,21.50
2019-01-04T18:57:14.467Z,21.50
2019-01-04T19:00:07.641Z,21.50
2019-01-04T19:03:00.601Z,21.50
2019-01-04T19:05:55.669Z,21.50
2019-01-04T19:08:49.790Z,21.50
2019-01-04T19:11:43.581Z,21.50
2019-01-04T19:14:38.104Z,21.50
2019-01-04T19:17:31.451Z,21.50
2019-01-04T19:20:27.499Z,21.50
2019-01-04T19:23:20.981Z,21.40
2019-01-04T19:26:13.907Z,21.50
2019-01-04T19:29:06.910Z,21.40
2019-01-04T19:32:00.067Z,21.40
2019-01-04T19:34:55.708Z,21.40
2019-01-04T19:37:49.309Z,21.40
2019-01-04T19:40:42.319Z,21.40
2019-01-04T19:43:35.423Z,21.40
2019-01-04T19:46:28.668Z,21.40
2019-01-04T19:49:22.180Z,21.40
2019-01-04T19:52:15.506Z,21.40
2019-01-04T19:55:09.393Z,21.40
2019-01-04T19:58:02.567Z,21.40
2019-01-04T20:00:59.117Z,21.40
2019-01-04T20:03:52.432Z,21.40
2019-01-04T20:07:16.882Z,21.40
2019-01-04T20:11:04.598Z,21.40
2019-01-04T20:14:39.531Z,21.40
2019-01-04T20:17:52.194Z,21.40
2019-01-04T20:21:02.623Z,21.40
2019-01-04T20:24:18.132Z,21.40
2019-01-04T20:27:31.425Z,21.40
2019-01-04T20:30:43.230Z,21.40
2019-01-04T20:33:55.115Z,21.40
2019-01-04T20:37:07.852Z,21.40
2019-01-04T20:40:23.048Z,21.40
2019-01-04T20:43:31.781Z,21.40
2019-01-04T20:46:58.674Z,21.40
2019-01-04T20:50:12.871Z,21.40
2019-01-04T20:53:39.264Z,21.40
2019-01-04T20:56:56.730Z,21.40
2019-01-04T21:00:09.590Z,21.40
2019-01-04T21:03:19.809Z,21.40
2019-01-04T21:06:32.466Z,21.40
2019-01-04T21:09:44.093Z,21.40
2019-01-04T21:12:58.572Z,21.40
2019-01-04T21:16:22.201Z,21.40
2019-01-04T21:19:39.741Z,21.40
2019-01-04T21:23:06.501Z,21.40
2019-01-04T21:26:16.665Z,21.40
2019-01-04T21:29:34.011Z,21.40
2019-01-04T21:32:54.725Z,21.40
2019-01-04T21:36:04.670Z,21.40
2019-01-04T21:39:30.894Z,21.40
2019-01-04T21:42:48.245Z,21.40
2019-01-04T21:45:58.160Z,21.40
2019-01-04T21:49:08.422Z,21.40
2019-01-04T21:52:24.157Z,21.40
2019-01-04T21:55:42.514Z,21.30
2019-01-04T21:58:52.594Z,21.30
2019-01-04T22:02:06.759Z,21.30
2019-01-04T22:05:19.436Z,21.30
2019-01-04T22:08:37.762Z,21.30
2019-01-04T22:11:47.433Z,21.30
2019-01-04T22:14:57.547Z,21.30
2019-01-04T22:18:24.649Z,21.30
2019-01-04T22:21:34.798Z,21.30
2019-01-04T22:24:44.270Z,21.30
2019-01-04T22:27:53.513Z,21.30
2019-01-04T22:31:23.026Z,21.30
2019-01-04T22:34:32.881Z,21.30
2019-01-04T22:37:56.662Z,21.30
2019-01-04T22:41:19.801Z,21.30
2019-01-04T22:44:35.118Z,21.30
2019-01-04T22:47:55.457Z,21.30
2019-01-04T22:51:10.056Z,21.30
2019-01-04T22:54:36.670Z,21.30
2019-01-04T22:57:46.721Z,21.30
2019-01-04T23:01:02.893Z,21.30
2019-01-04T23:04:30.284Z,21.30
2019-01-04T23:07:40.229Z,21.30
2019-01-04T23:11:11.989Z,21.20
2019-01-04T23:14:22.757Z,21.20
2019-01-04T23:17:46.856Z,21.20
2019-01-04T23:20:57.932Z,21.30
2019-01-04T23:24:26.043Z,21.20
2019-01-04T23:27:35.764Z,21.20
2019-01-04T23:30:45.104Z,21.20
2019-01-04T23:34:11.242Z,21.20
2019-01-04T23:37:38.306Z,21.20
2019-01-04T23:40:51.304Z,21.20
2019-01-04T23:44:01.587Z,21.20
2019-01-04T23:47:22.580Z,21.20
2019-01-04T23:50:23.440Z,21.20
2019-01-04T23:53:35.067Z,21.20
2019-01-04T23:56:44.969Z,21.20
2019-01-04T23:59:55.484Z,21.20
